sensor_id;sensor_type;location;lat;lon;timestamp;P1;durP1;ratioP1;P2;durP2;ratioP2
41293;SDS011;27037;52.010;4.446;2023-04-07T00:00:25;15.65;;;4.57;;
41293;SDS011;27037;52.010;4.446;2023-04-07T00:02:51;19.83;;;4.70;;
41293;SDS011;27037;52.010;4.446;2023-04-07T00:05:17;17.20;;;5.28;;
41293;SDS011;27037;52.010;4.446;2023-04-07T00:07:43;18.23;;;5.07;;
41293;SDS011;27037;52.010;4.446;2023-04-07T00:10:08;24.90;;;4.82;;
41293;SDS011;27037;52.010;4.446;2023-04-07T00:12:34;22.05;;;5.00;;
41293;SDS011;27037;52.010;4.446;2023-04-07T00:15:00;21.50;;;5.05;;
41293;SDS011;27037;52.010;4.446;2023-04-07T00:17:26;23.27;;;4.53;;
41293;SDS011;27037;52.010;4.446;2023-04-07T00:19:52;17.25;;;4.53;;
41293;SDS011;27037;52.010;4.446;2023-04-07T00:22:17;18.38;;;4.10;;
41293;SDS011;27037;52.010;4.446;2023-04-07T00:24:43;22.80;;;3.97;;
41293;SDS011;27037;52.010;4.446;2023-04-07T00:27:08;27.48;;;3.97;;
41293;SDS011;27037;52.010;4.446;2023-04-07T00:29:34;18.75;;;3.90;;
41293;SDS011;27037;52.010;4.446;2023-04-07T00:32:00;24.42;;;4.30;;
41293;SDS011;27037;52.010;4.446;2023-04-07T00:34:25;18.58;;;3.75;;
41293;SDS011;27037;52.010;4.446;2023-04-07T00:36:51;23.90;;;3.92;;
41293;SDS011;27037;52.010;4.446;2023-04-07T00:39:17;26.67;;;3.85;;
41293;SDS011;27037;52.010;4.446;2023-04-07T00:41:44;23.67;;;4.63;;
41293;SDS011;27037;52.010;4.446;2023-04-07T00:44:10;21.00;;;4.15;;
41293;SDS011;27037;52.010;4.446;2023-04-07T00:46:36;22.38;;;4.35;;
41293;SDS011;27037;52.010;4.446;2023-04-07T00:49:01;26.88;;;3.83;;
41293;SDS011;27037;52.010;4.446;2023-04-07T00:51:27;22.42;;;4.18;;
41293;SDS011;27037;52.010;4.446;2023-04-07T00:53:53;24.30;;;4.65;;
41293;SDS011;27037;52.010;4.446;2023-04-07T00:56:19;19.20;;;3.58;;
41293;SDS011;27037;52.010;4.446;2023-04-07T00:58:45;21.65;;;4.10;;
41293;SDS011;27037;52.010;4.446;2023-04-07T01:04:00;30.63;;;4.82;;
41293;SDS011;27037;52.010;4.446;2023-04-07T01:06:32;23.10;;;4.38;;
41293;SDS011;27037;52.010;4.446;2023-04-07T01:09:04;20.77;;;4.20;;
41293;SDS011;27037;52.010;4.446;2023-04-07T01:11:42;23.55;;;4.13;;
41293;SDS011;27037;52.010;4.446;2023-04-07T01:14:14;21.35;;;4.78;;
41293;SDS011;27037;52.010;4.446;2023-04-07T01:16:45;27.70;;;4.68;;
41293;SDS011;27037;52.010;4.446;2023-04-07T01:21:42;21.85;;;5.03;;
41293;SDS011;27037;52.010;4.446;2023-04-07T01:30:17;24.48;;;4.85;;
41293;SDS011;27037;52.010;4.446;2023-04-07T01:32:45;28.30;;;5.72;;
41293;SDS011;27037;52.010;4.446;2023-04-07T01:35:16;27.75;;;5.57;;
41293;SDS011;27037;52.010;4.446;2023-04-07T01:37:43;25.77;;;4.85;;
41293;SDS011;27037;52.010;4.446;2023-04-07T01:40:12;24.25;;;4.57;;
41293;SDS011;27037;52.010;4.446;2023-04-07T01:42:39;20.23;;;4.75;;
41293;SDS011;27037;52.010;4.446;2023-04-07T01:45:06;24.08;;;5.50;;
41293;SDS011;27037;52.010;4.446;2023-04-07T01:47:34;16.02;;;4.38;;
41293;SDS011;27037;52.010;4.446;2023-04-07T01:50:02;19.58;;;4.47;;
41293;SDS011;27037;52.010;4.446;2023-04-07T01:52:29;23.08;;;4.60;;
41293;SDS011;27037;52.010;4.446;2023-04-07T01:54:57;27.45;;;5.45;;
41293;SDS011;27037;52.010;4.446;2023-04-07T01:57:23;23.85;;;4.53;;
41293;SDS011;27037;52.010;4.446;2023-04-07T01:59:48;17.80;;;4.43;;
41293;SDS011;27037;52.010;4.446;2023-04-07T02:02:14;25.70;;;4.72;;
41293;SDS011;27037;52.010;4.446;2023-04-07T02:04:44;20.52;;;5.28;;
41293;SDS011;27037;52.010;4.446;2023-04-07T02:10:15;21.92;;;5.07;;
41293;SDS011;27037;52.010;4.446;2023-04-07T02:12:44;20.00;;;4.93;;
41293;SDS011;27037;52.010;4.446;2023-04-07T02:15:11;19.92;;;4.80;;
41293;SDS011;27037;52.010;4.446;2023-04-07T02:17:39;28.83;;;5.32;;
41293;SDS011;27037;52.010;4.446;2023-04-07T02:20:08;21.88;;;4.53;;
41293;SDS011;27037;52.010;4.446;2023-04-07T02:22:36;22.77;;;5.00;;
41293;SDS011;27037;52.010;4.446;2023-04-07T02:25:48;24.60;;;5.18;;
41293;SDS011;27037;52.010;4.446;2023-04-07T02:27:50;22.75;;;4.45;;
41293;SDS011;27037;52.010;4.446;2023-04-07T02:30:16;19.50;;;4.35;;
41293;SDS011;27037;52.010;4.446;2023-04-07T02:32:42;14.70;;;4.65;;
41293;SDS011;27037;52.010;4.446;2023-04-07T02:35:07;18.30;;;4.25;;
41293;SDS011;27037;52.010;4.446;2023-04-07T02:37:33;25.77;;;4.45;;
41293;SDS011;27037;52.010;4.446;2023-04-07T02:39:59;21.58;;;4.55;;
41293;SDS011;27037;52.010;4.446;2023-04-07T02:42:25;21.35;;;4.68;;
41293;SDS011;27037;52.010;4.446;2023-04-07T02:44:50;22.98;;;4.35;;
41293;SDS011;27037;52.010;4.446;2023-04-07T02:47:16;21.10;;;4.65;;
41293;SDS011;27037;52.010;4.446;2023-04-07T02:49:42;23.60;;;4.75;;
41293;SDS011;27037;52.010;4.446;2023-04-07T02:52:07;20.65;;;4.45;;
41293;SDS011;27037;52.010;4.446;2023-04-07T02:54:33;16.20;;;4.63;;
41293;SDS011;27037;52.010;4.446;2023-04-07T02:56:58;20.88;;;5.13;;
41293;SDS011;27037;52.010;4.446;2023-04-07T02:59:24;20.85;;;4.55;;
41293;SDS011;27037;52.010;4.446;2023-04-07T03:01:50;18.85;;;4.57;;
41293;SDS011;27037;52.010;4.446;2023-04-07T03:04:16;21.40;;;4.47;;
41293;SDS011;27037;52.010;4.446;2023-04-07T03:06:41;20.27;;;5.15;;
41293;SDS011;27037;52.010;4.446;2023-04-07T03:09:07;20.40;;;4.93;;
41293;SDS011;27037;52.010;4.446;2023-04-07T03:11:32;20.05;;;4.72;;
41293;SDS011;27037;52.010;4.446;2023-04-07T03:13:58;20.50;;;4.50;;
41293;SDS011;27037;52.010;4.446;2023-04-07T03:16:24;23.63;;;4.78;;
41293;SDS011;27037;52.010;4.446;2023-04-07T03:18:49;19.45;;;4.63;;
41293;SDS011;27037;52.010;4.446;2023-04-07T03:21:15;21.98;;;4.85;;
41293;SDS011;27037;52.010;4.446;2023-04-07T03:23:40;16.80;;;4.10;;
41293;SDS011;27037;52.010;4.446;2023-04-07T03:26:07;16.88;;;4.95;;
41293;SDS011;27037;52.010;4.446;2023-04-07T03:28:33;22.17;;;4.80;;
41293;SDS011;27037;52.010;4.446;2023-04-07T03:30:58;13.07;;;3.95;;
41293;SDS011;27037;52.010;4.446;2023-04-07T03:33:24;16.75;;;4.57;;
41293;SDS011;27037;52.010;4.446;2023-04-07T03:35:49;20.92;;;4.05;;
41293;SDS011;27037;52.010;4.446;2023-04-07T03:38:15;16.15;;;4.10;;
41293;SDS011;27037;52.010;4.446;2023-04-07T03:40:40;18.63;;;3.58;;
41293;SDS011;27037;52.010;4.446;2023-04-07T03:43:06;16.67;;;4.53;;
41293;SDS011;27037;52.010;4.446;2023-04-07T03:45:36;15.80;;;4.10;;
41293;SDS011;27037;52.010;4.446;2023-04-07T03:48:02;19.85;;;4.20;;
41293;SDS011;27037;52.010;4.446;2023-04-07T03:50:28;13.23;;;4.03;;
41293;SDS011;27037;52.010;4.446;2023-04-07T03:52:53;18.20;;;3.83;;
41293;SDS011;27037;52.010;4.446;2023-04-07T03:55:19;14.57;;;4.18;;
41293;SDS011;27037;52.010;4.446;2023-04-07T03:57:45;15.73;;;4.65;;
41293;SDS011;27037;52.010;4.446;2023-04-07T04:00:11;19.23;;;4.90;;
41293;SDS011;27037;52.010;4.446;2023-04-07T04:02:37;13.68;;;3.75;;
41293;SDS011;27037;52.010;4.446;2023-04-07T04:05:03;11.73;;;3.80;;
41293;SDS011;27037;52.010;4.446;2023-04-07T04:07:28;15.77;;;4.65;;
41293;SDS011;27037;52.010;4.446;2023-04-07T04:09:55;21.85;;;4.80;;
41293;SDS011;27037;52.010;4.446;2023-04-07T04:12:20;17.08;;;4.43;;
41293;SDS011;27037;52.010;4.446;2023-04-07T04:14:46;18.08;;;4.55;;
41293;SDS011;27037;52.010;4.446;2023-04-07T04:17:11;16.58;;;4.25;;
41293;SDS011;27037;52.010;4.446;2023-04-07T04:19:37;11.73;;;4.13;;
41293;SDS011;27037;52.010;4.446;2023-04-07T04:22:03;16.67;;;4.22;;
41293;SDS011;27037;52.010;4.446;2023-04-07T04:24:28;12.23;;;3.75;;
41293;SDS011;27037;52.010;4.446;2023-04-07T04:26:54;14.02;;;4.10;;
41293;SDS011;27037;52.010;4.446;2023-04-07T04:29:20;9.57;;;3.70;;
41293;SDS011;27037;52.010;4.446;2023-04-07T04:31:46;14.10;;;4.00;;
41293;SDS011;27037;52.010;4.446;2023-04-07T04:34:11;13.77;;;3.53;;
41293;SDS011;27037;52.010;4.446;2023-04-07T04:36:37;15.65;;;3.38;;
41293;SDS011;27037;52.010;4.446;2023-04-07T04:39:04;11.68;;;2.88;;
41293;SDS011;27037;52.010;4.446;2023-04-07T04:41:30;16.40;;;3.22;;
41293;SDS011;27037;52.010;4.446;2023-04-07T04:43:56;16.67;;;2.90;;
41293;SDS011;27037;52.010;4.446;2023-04-07T04:46:21;15.73;;;2.97;;
41293;SDS011;27037;52.010;4.446;2023-04-07T04:48:47;18.85;;;3.22;;
41293;SDS011;27037;52.010;4.446;2023-04-07T04:51:12;16.40;;;2.65;;
41293;SDS011;27037;52.010;4.446;2023-04-07T04:53:38;13.23;;;2.45;;
41293;SDS011;27037;52.010;4.446;2023-04-07T04:56:04;16.33;;;3.38;;
41293;SDS011;27037;52.010;4.446;2023-04-07T04:58:30;17.27;;;2.60;;
41293;SDS011;27037;52.010;4.446;2023-04-07T05:00:55;19.35;;;3.40;;
41293;SDS011;27037;52.010;4.446;2023-04-07T05:03:22;13.73;;;2.63;;
41293;SDS011;27037;52.010;4.446;2023-04-07T05:05:50;14.20;;;2.78;;
41293;SDS011;27037;52.010;4.446;2023-04-07T05:08:15;14.45;;;2.85;;
41293;SDS011;27037;52.010;4.446;2023-04-07T05:10:41;7.97;;;2.67;;
41293;SDS011;27037;52.010;4.446;2023-04-07T05:13:06;15.20;;;2.72;;
41293;SDS011;27037;52.010;4.446;2023-04-07T05:15:32;13.43;;;2.67;;
41293;SDS011;27037;52.010;4.446;2023-04-07T05:17:58;15.73;;;3.00;;
41293;SDS011;27037;52.010;4.446;2023-04-07T05:20:23;9.52;;;2.88;;
41293;SDS011;27037;52.010;4.446;2023-04-07T05:22:49;11.48;;;2.58;;
41293;SDS011;27037;52.010;4.446;2023-04-07T05:25:15;13.40;;;3.03;;
41293;SDS011;27037;52.010;4.446;2023-04-07T05:27:40;15.93;;;2.83;;
41293;SDS011;27037;52.010;4.446;2023-04-07T05:30:06;14.13;;;2.85;;
41293;SDS011;27037;52.010;4.446;2023-04-07T05:32:32;16.50;;;2.80;;
41293;SDS011;27037;52.010;4.446;2023-04-07T05:34:58;13.25;;;2.72;;
41293;SDS011;27037;52.010;4.446;2023-04-07T05:37:23;9.63;;;2.55;;
41293;SDS011;27037;52.010;4.446;2023-04-07T05:39:49;13.07;;;3.05;;
41293;SDS011;27037;52.010;4.446;2023-04-07T05:42:15;12.60;;;2.85;;
41293;SDS011;27037;52.010;4.446;2023-04-07T05:44:40;12.10;;;2.20;;
41293;SDS011;27037;52.010;4.446;2023-04-07T05:47:06;12.95;;;2.45;;
41293;SDS011;27037;52.010;4.446;2023-04-07T05:49:35;13.05;;;2.75;;
41293;SDS011;27037;52.010;4.446;2023-04-07T05:52:01;12.18;;;2.38;;
41293;SDS011;27037;52.010;4.446;2023-04-07T05:54:27;12.20;;;2.35;;
41293;SDS011;27037;52.010;4.446;2023-04-07T05:56:53;12.60;;;2.30;;
41293;SDS011;27037;52.010;4.446;2023-04-07T05:59:18;11.00;;;2.35;;
41293;SDS011;27037;52.010;4.446;2023-04-07T06:01:44;15.85;;;2.92;;
41293;SDS011;27037;52.010;4.446;2023-04-07T06:04:10;11.98;;;2.60;;
41293;SDS011;27037;52.010;4.446;2023-04-07T06:06:35;17.88;;;2.47;;
41293;SDS011;27037;52.010;4.446;2023-04-07T06:09:02;11.05;;;2.30;;
41293;SDS011;27037;52.010;4.446;2023-04-07T06:11:27;13.40;;;2.38;;
41293;SDS011;27037;52.010;4.446;2023-04-07T06:13:53;15.38;;;2.60;;
41293;SDS011;27037;52.010;4.446;2023-04-07T06:16:18;17.30;;;2.22;;
41293;SDS011;27037;52.010;4.446;2023-04-07T06:18:44;16.88;;;2.35;;
41293;SDS011;27037;52.010;4.446;2023-04-07T06:21:10;13.95;;;2.55;;
41293;SDS011;27037;52.010;4.446;2023-04-07T06:23:35;14.48;;;2.97;;
41293;SDS011;27037;52.010;4.446;2023-04-07T06:26:01;12.35;;;2.22;;
41293;SDS011;27037;52.010;4.446;2023-04-07T06:28:26;15.02;;;2.33;;
41293;SDS011;27037;52.010;4.446;2023-04-07T06:30:52;13.88;;;2.20;;
41293;SDS011;27037;52.010;4.446;2023-04-07T06:33:18;16.67;;;2.47;;
41293;SDS011;27037;52.010;4.446;2023-04-07T06:35:46;14.48;;;2.30;;
41293;SDS011;27037;52.010;4.446;2023-04-07T06:38:11;18.58;;;2.30;;
41293;SDS011;27037;52.010;4.446;2023-04-07T06:40:37;19.83;;;2.28;;
41293;SDS011;27037;52.010;4.446;2023-04-07T06:43:03;12.50;;;2.50;;
41293;SDS011;27037;52.010;4.446;2023-04-07T06:45:28;17.08;;;2.40;;
41293;SDS011;27037;52.010;4.446;2023-04-07T06:47:54;20.48;;;2.83;;
41293;SDS011;27037;52.010;4.446;2023-04-07T06:50:20;18.95;;;2.55;;
41293;SDS011;27037;52.010;4.446;2023-04-07T06:52:46;17.52;;;2.47;;
41293;SDS011;27037;52.010;4.446;2023-04-07T06:55:12;12.55;;;2.33;;
41293;SDS011;27037;52.010;4.446;2023-04-07T06:57:37;9.20;;;1.88;;
41293;SDS011;27037;52.010;4.446;2023-04-07T07:00:03;10.90;;;2.00;;
41293;SDS011;27037;52.010;4.446;2023-04-07T07:02:31;12.30;;;2.40;;
41293;SDS011;27037;52.010;4.446;2023-04-07T07:04:57;12.25;;;2.00;;
41293;SDS011;27037;52.010;4.446;2023-04-07T07:07:23;12.18;;;2.13;;
41293;SDS011;27037;52.010;4.446;2023-04-07T07:09:49;17.90;;;2.50;;
41293;SDS011;27037;52.010;4.446;2023-04-07T07:12:15;13.70;;;2.17;;
41293;SDS011;27037;52.010;4.446;2023-04-07T07:14:42;17.02;;;2.70;;
41293;SDS011;27037;52.010;4.446;2023-04-07T07:17:07;14.80;;;2.22;;
41293;SDS011;27037;52.010;4.446;2023-04-07T07:19:33;19.73;;;2.45;;
41293;SDS011;27037;52.010;4.446;2023-04-07T07:21:59;15.98;;;2.50;;
41293;SDS011;27037;52.010;4.446;2023-04-07T07:24:28;12.80;;;2.55;;
41293;SDS011;27037;52.010;4.446;2023-04-07T07:26:54;15.80;;;2.72;;
41293;SDS011;27037;52.010;4.446;2023-04-07T07:29:21;12.98;;;2.67;;
41293;SDS011;27037;52.010;4.446;2023-04-07T07:31:46;14.40;;;2.38;;
41293;SDS011;27037;52.010;4.446;2023-04-07T07:34:12;17.98;;;2.60;;
41293;SDS011;27037;52.010;4.446;2023-04-07T07:36:38;10.73;;;2.47;;
41293;SDS011;27037;52.010;4.446;2023-04-07T07:39:04;14.30;;;2.40;;
41293;SDS011;27037;52.010;4.446;2023-04-07T07:41:30;12.02;;;2.33;;
41293;SDS011;27037;52.010;4.446;2023-04-07T07:43:55;9.02;;;2.47;;
41293;SDS011;27037;52.010;4.446;2023-04-07T07:46:21;12.70;;;2.55;;
41293;SDS011;27037;52.010;4.446;2023-04-07T07:48:49;10.60;;;2.33;;
41293;SDS011;27037;52.010;4.446;2023-04-07T07:51:15;13.15;;;2.80;;
41293;SDS011;27037;52.010;4.446;2023-04-07T07:53:42;18.02;;;3.00;;
41293;SDS011;27037;52.010;4.446;2023-04-07T07:56:08;9.57;;;2.20;;
41293;SDS011;27037;52.010;4.446;2023-04-07T07:58:34;17.55;;;2.90;;
41293;SDS011;27037;52.010;4.446;2023-04-07T08:00:59;13.95;;;2.83;;
41293;SDS011;27037;52.010;4.446;2023-04-07T08:03:25;9.77;;;2.28;;
41293;SDS011;27037;52.010;4.446;2023-04-07T08:05:51;16.40;;;2.60;;
41293;SDS011;27037;52.010;4.446;2023-04-07T08:08:16;20.13;;;2.78;;
41293;SDS011;27037;52.010;4.446;2023-04-07T08:10:42;13.77;;;2.45;;
41293;SDS011;27037;52.010;4.446;2023-04-07T08:13:07;15.25;;;2.40;;
41293;SDS011;27037;52.010;4.446;2023-04-07T08:15:33;13.73;;;2.45;;
41293;SDS011;27037;52.010;4.446;2023-04-07T08:17:59;12.48;;;2.88;;
41293;SDS011;27037;52.010;4.446;2023-04-07T08:20:27;18.25;;;2.85;;
41293;SDS011;27037;52.010;4.446;2023-04-07T08:22:52;13.48;;;2.95;;
41293;SDS011;27037;52.010;4.446;2023-04-07T08:25:18;11.27;;;2.72;;
41293;SDS011;27037;52.010;4.446;2023-04-07T08:27:44;12.52;;;2.60;;
41293;SDS011;27037;52.010;4.446;2023-04-07T08:30:10;16.40;;;2.70;;
41293;SDS011;27037;52.010;4.446;2023-04-07T08:32:40;19.95;;;2.85;;
41293;SDS011;27037;52.010;4.446;2023-04-07T08:35:07;16.25;;;2.42;;
41293;SDS011;27037;52.010;4.446;2023-04-07T08:37:33;12.38;;;2.13;;
41293;SDS011;27037;52.010;4.446;2023-04-07T08:40:00;17.75;;;3.03;;
41293;SDS011;27037;52.010;4.446;2023-04-07T08:42:27;10.77;;;2.30;;
41293;SDS011;27037;52.010;4.446;2023-04-07T08:44:56;20.02;;;2.60;;
41293;SDS011;27037;52.010;4.446;2023-04-07T08:47:25;16.23;;;2.60;;
41293;SDS011;27037;52.010;4.446;2023-04-07T08:49:56;12.27;;;2.20;;
41293;SDS011;27037;52.010;4.446;2023-04-07T08:52:24;13.60;;;2.50;;
41293;SDS011;27037;52.010;4.446;2023-04-07T08:55:03;19.65;;;2.92;;
41293;SDS011;27037;52.010;4.446;2023-04-07T08:57:31;17.52;;;2.60;;
41293;SDS011;27037;52.010;4.446;2023-04-07T08:59:58;13.95;;;2.40;;
41293;SDS011;27037;52.010;4.446;2023-04-07T09:02:29;13.68;;;2.55;;
41293;SDS011;27037;52.010;4.446;2023-04-07T09:04:57;17.63;;;2.80;;
41293;SDS011;27037;52.010;4.446;2023-04-07T09:07:23;18.73;;;2.33;;
41293;SDS011;27037;52.010;4.446;2023-04-07T09:09:48;16.15;;;2.22;;
41293;SDS011;27037;52.010;4.446;2023-04-07T09:12:14;11.98;;;2.30;;
41293;SDS011;27037;52.010;4.446;2023-04-07T09:14:40;16.58;;;2.47;;
41293;SDS011;27037;52.010;4.446;2023-04-07T09:17:06;15.32;;;2.20;;
41293;SDS011;27037;52.010;4.446;2023-04-07T09:19:31;17.17;;;2.67;;
41293;SDS011;27037;52.010;4.446;2023-04-07T09:21:57;14.52;;;2.17;;
41293;SDS011;27037;52.010;4.446;2023-04-07T09:24:27;8.73;;;1.70;;
41293;SDS011;27037;52.010;4.446;2023-04-07T09:27:08;11.48;;;1.77;;
41293;SDS011;27037;52.010;4.446;2023-04-07T09:29:37;13.20;;;1.98;;
41293;SDS011;27037;52.010;4.446;2023-04-07T09:32:04;13.85;;;2.42;;
41293;SDS011;27037;52.010;4.446;2023-04-07T09:34:31;19.08;;;2.75;;
41293;SDS011;27037;52.010;4.446;2023-04-07T09:36:59;16.85;;;2.47;;
41293;SDS011;27037;52.010;4.446;2023-04-07T09:39:25;16.33;;;2.25;;
41293;SDS011;27037;52.010;4.446;2023-04-07T09:41:51;14.95;;;2.60;;
41293;SDS011;27037;52.010;4.446;2023-04-07T09:44:20;14.45;;;2.25;;
41293;SDS011;27037;52.010;4.446;2023-04-07T09:49:15;12.07;;;2.30;;
41293;SDS011;27037;52.010;4.446;2023-04-07T09:51:51;11.38;;;2.53;;
41293;SDS011;27037;52.010;4.446;2023-04-07T09:54:34;11.82;;;2.40;;
41293;SDS011;27037;52.010;4.446;2023-04-07T09:57:05;16.75;;;2.63;;
41293;SDS011;27037;52.010;4.446;2023-04-07T09:59:33;13.60;;;2.42;;
41293;SDS011;27037;52.010;4.446;2023-04-07T10:01:59;9.75;;;2.10;;
41293;SDS011;27037;52.010;4.446;2023-04-07T10:04:26;12.68;;;2.58;;
41293;SDS011;27037;52.010;4.446;2023-04-07T10:06:53;14.52;;;2.70;;
41293;SDS011;27037;52.010;4.446;2023-04-07T10:09:22;12.85;;;2.10;;
41293;SDS011;27037;52.010;4.446;2023-04-07T10:11:50;18.35;;;2.75;;
41293;SDS011;27037;52.010;4.446;2023-04-07T10:14:18;17.40;;;2.85;;
41293;SDS011;27037;52.010;4.446;2023-04-07T10:16:45;11.10;;;2.47;;
41293;SDS011;27037;52.010;4.446;2023-04-07T10:19:13;12.10;;;2.28;;
41293;SDS011;27037;52.010;4.446;2023-04-07T10:21:40;13.65;;;2.80;;
41293;SDS011;27037;52.010;4.446;2023-04-07T10:24:16;18.17;;;2.28;;
41293;SDS011;27037;52.010;4.446;2023-04-07T10:26:56;16.58;;;2.50;;
41293;SDS011;27037;52.010;4.446;2023-04-07T10:29:26;17.63;;;2.30;;
41293;SDS011;27037;52.010;4.446;2023-04-07T10:31:55;14.95;;;2.63;;
41293;SDS011;27037;52.010;4.446;2023-04-07T10:37:14;14.35;;;1.88;;
41293;SDS011;27037;52.010;4.446;2023-04-07T10:39:44;12.70;;;2.13;;
41293;SDS011;27037;52.010;4.446;2023-04-07T10:45:14;13.40;;;2.40;;
41293;SDS011;27037;52.010;4.446;2023-04-07T10:50:28;13.27;;;2.28;;
41293;SDS011;27037;52.010;4.446;2023-04-07T10:53:06;12.23;;;2.22;;
41293;SDS011;27037;52.010;4.446;2023-04-07T10:55:39;15.27;;;2.70;;
41293;SDS011;27037;52.010;4.446;2023-04-07T11:03:38;16.88;;;2.40;;
41293;SDS011;27037;52.010;4.446;2023-04-07T11:06:09;14.47;;;2.37;;
41293;SDS011;27037;52.010;4.446;2023-04-07T11:08:39;15.45;;;2.17;;
41293;SDS011;27037;52.010;4.446;2023-04-07T11:11:07;19.30;;;2.72;;
41293;SDS011;27037;52.010;4.446;2023-04-07T11:13:43;17.27;;;2.13;;
41293;SDS011;27037;52.010;4.446;2023-04-07T11:16:11;12.90;;;2.47;;
41293;SDS011;27037;52.010;4.446;2023-04-07T11:18:38;17.65;;;2.63;;
41293;SDS011;27037;52.010;4.446;2023-04-07T11:21:05;12.65;;;2.58;;
41293;SDS011;27037;52.010;4.446;2023-04-07T11:23:38;13.43;;;2.38;;
41293;SDS011;27037;52.010;4.446;2023-04-07T11:26:05;10.65;;;2.42;;
41293;SDS011;27037;52.010;4.446;2023-04-07T11:28:32;18.42;;;2.28;;
41293;SDS011;27037;52.010;4.446;2023-04-07T11:30:58;14.50;;;2.38;;
41293;SDS011;27037;52.010;4.446;2023-04-07T11:33:25;13.25;;;2.28;;
41293;SDS011;27037;52.010;4.446;2023-04-07T11:35:53;14.18;;;2.65;;
41293;SDS011;27037;52.010;4.446;2023-04-07T11:38:20;16.00;;;2.40;;
41293;SDS011;27037;52.010;4.446;2023-04-07T11:40:47;18.15;;;2.25;;
41293;SDS011;27037;52.010;4.446;2023-04-07T11:43:16;8.23;;;1.80;;
41293;SDS011;27037;52.010;4.446;2023-04-07T11:48:32;10.00;;;2.05;;
41293;SDS011;27037;52.010;4.446;2023-04-07T11:50:59;23.15;;;2.40;;
41293;SDS011;27037;52.010;4.446;2023-04-07T11:53:29;14.85;;;2.30;;
41293;SDS011;27037;52.010;4.446;2023-04-07T11:55:59;11.60;;;2.05;;
41293;SDS011;27037;52.010;4.446;2023-04-07T11:58:26;12.88;;;2.50;;
41293;SDS011;27037;52.010;4.446;2023-04-07T12:00:55;11.75;;;2.45;;
41293;SDS011;27037;52.010;4.446;2023-04-07T12:03:29;9.80;;;2.00;;
41293;SDS011;27037;52.010;4.446;2023-04-07T12:05:54;9.95;;;2.15;;
41293;SDS011;27037;52.010;4.446;2023-04-07T12:08:20;11.40;;;1.75;;
41293;SDS011;27037;52.010;4.446;2023-04-07T12:10:46;8.70;;;1.75;;
41293;SDS011;27037;52.010;4.446;2023-04-07T12:13:12;10.38;;;1.90;;
41293;SDS011;27037;52.010;4.446;2023-04-07T12:15:38;11.05;;;1.80;;
41293;SDS011;27037;52.010;4.446;2023-04-07T12:18:03;11.20;;;1.73;;
41293;SDS011;27037;52.010;4.446;2023-04-07T12:20:30;8.75;;;1.83;;
41293;SDS011;27037;52.010;4.446;2023-04-07T12:22:56;9.80;;;2.03;;
41293;SDS011;27037;52.010;4.446;2023-04-07T12:25:22;9.48;;;1.80;;
41293;SDS011;27037;52.010;4.446;2023-04-07T12:27:48;11.98;;;1.73;;
41293;SDS011;27037;52.010;4.446;2023-04-07T12:30:14;10.80;;;1.90;;
41293;SDS011;27037;52.010;4.446;2023-04-07T12:32:39;12.25;;;1.80;;
41293;SDS011;27037;52.010;4.446;2023-04-07T12:35:05;13.18;;;2.33;;
41293;SDS011;27037;52.010;4.446;2023-04-07T12:37:30;14.55;;;2.08;;
41293;SDS011;27037;52.010;4.446;2023-04-07T12:39:57;18.40;;;2.50;;
41293;SDS011;27037;52.010;4.446;2023-04-07T12:42:23;11.95;;;1.98;;
41293;SDS011;27037;52.010;4.446;2023-04-07T12:44:48;15.98;;;2.10;;
41293;SDS011;27037;52.010;4.446;2023-04-07T12:47:14;10.32;;;1.80;;
41293;SDS011;27037;52.010;4.446;2023-04-07T12:49:40;11.38;;;1.70;;
41293;SDS011;27037;52.010;4.446;2023-04-07T12:52:05;3.97;;;1.17;;
41293;SDS011;27037;52.010;4.446;2023-04-07T12:54:31;9.30;;;1.73;;
41293;SDS011;27037;52.010;4.446;2023-04-07T12:56:57;9.75;;;1.75;;
41293;SDS011;27037;52.010;4.446;2023-04-07T12:59:23;12.13;;;1.98;;
41293;SDS011;27037;52.010;4.446;2023-04-07T13:01:49;14.52;;;2.40;;
41293;SDS011;27037;52.010;4.446;2023-04-07T13:04:15;9.82;;;1.80;;
41293;SDS011;27037;52.010;4.446;2023-04-07T13:06:41;10.90;;;1.80;;
41293;SDS011;27037;52.010;4.446;2023-04-07T13:09:07;14.82;;;2.60;;
41293;SDS011;27037;52.010;4.446;2023-04-07T13:11:33;13.75;;;2.40;;
41293;SDS011;27037;52.010;4.446;2023-04-07T13:13:58;14.98;;;2.95;;
41293;SDS011;27037;52.010;4.446;2023-04-07T13:16:25;16.90;;;2.92;;
41293;SDS011;27037;52.010;4.446;2023-04-07T13:18:50;13.43;;;2.08;;
41293;SDS011;27037;52.010;4.446;2023-04-07T13:21:16;13.60;;;2.38;;
41293;SDS011;27037;52.010;4.446;2023-04-07T13:23:41;16.90;;;2.88;;
41293;SDS011;27037;52.010;4.446;2023-04-07T13:26:07;14.95;;;2.85;;
41293;SDS011;27037;52.010;4.446;2023-04-07T13:28:33;16.42;;;3.03;;
41293;SDS011;27037;52.010;4.446;2023-04-07T13:30:59;11.90;;;2.33;;
41293;SDS011;27037;52.010;4.446;2023-04-07T13:33:24;16.15;;;2.70;;
41293;SDS011;27037;52.010;4.446;2023-04-07T13:35:50;13.52;;;2.33;;
41293;SDS011;27037;52.010;4.446;2023-04-07T13:38:15;15.40;;;2.75;;
41293;SDS011;27037;52.010;4.446;2023-04-07T13:40:41;16.65;;;2.70;;
41293;SDS011;27037;52.010;4.446;2023-04-07T13:43:08;14.52;;;2.40;;
41293;SDS011;27037;52.010;4.446;2023-04-07T13:45:36;20.25;;;3.22;;
41293;SDS011;27037;52.010;4.446;2023-04-07T13:48:02;18.70;;;3.33;;
41293;SDS011;27037;52.010;4.446;2023-04-07T13:50:28;14.70;;;2.67;;
41293;SDS011;27037;52.010;4.446;2023-04-07T13:52:53;12.63;;;3.08;;
41293;SDS011;27037;52.010;4.446;2023-04-07T13:55:19;15.60;;;2.92;;
41293;SDS011;27037;52.010;4.446;2023-04-07T13:57:44;14.63;;;2.83;;
41293;SDS011;27037;52.010;4.446;2023-04-07T14:00:10;17.45;;;2.85;;
41293;SDS011;27037;52.010;4.446;2023-04-07T14:02:36;15.98;;;2.65;;
41293;SDS011;27037;52.010;4.446;2023-04-07T14:05:02;12.18;;;2.70;;
41293;SDS011;27037;52.010;4.446;2023-04-07T14:07:28;17.65;;;2.90;;
41293;SDS011;27037;52.010;4.446;2023-04-07T14:09:53;19.88;;;2.78;;
41293;SDS011;27037;52.010;4.446;2023-04-07T14:12:19;18.33;;;3.58;;
41293;SDS011;27037;52.010;4.446;2023-04-07T14:14:48;19.13;;;3.10;;
41293;SDS011;27037;52.010;4.446;2023-04-07T14:17:16;17.92;;;3.13;;
41293;SDS011;27037;52.010;4.446;2023-04-07T14:19:42;18.95;;;3.22;;
41293;SDS011;27037;52.010;4.446;2023-04-07T14:22:07;17.60;;;2.88;;
41293;SDS011;27037;52.010;4.446;2023-04-07T14:24:33;14.63;;;2.90;;
41293;SDS011;27037;52.010;4.446;2023-04-07T14:26:58;15.90;;;3.03;;
41293;SDS011;27037;52.010;4.446;2023-04-07T14:29:25;14.60;;;2.88;;
41293;SDS011;27037;52.010;4.446;2023-04-07T14:31:51;16.13;;;2.80;;
41293;SDS011;27037;52.010;4.446;2023-04-07T14:34:17;15.57;;;3.00;;
41293;SDS011;27037;52.010;4.446;2023-04-07T14:36:51;19.20;;;2.95;;
41293;SDS011;27037;52.010;4.446;2023-04-07T14:39:18;15.07;;;2.60;;
41293;SDS011;27037;52.010;4.446;2023-04-07T14:41:44;15.02;;;2.63;;
41293;SDS011;27037;52.010;4.446;2023-04-07T14:44:11;22.45;;;3.60;;
41293;SDS011;27037;52.010;4.446;2023-04-07T14:46:37;11.75;;;2.80;;
41293;SDS011;27037;52.010;4.446;2023-04-07T14:49:03;14.13;;;2.50;;
41293;SDS011;27037;52.010;4.446;2023-04-07T14:51:28;11.40;;;3.13;;
41293;SDS011;27037;52.010;4.446;2023-04-07T14:53:54;12.52;;;2.78;;
41293;SDS011;27037;52.010;4.446;2023-04-07T14:56:21;13.68;;;2.70;;
41293;SDS011;27037;52.010;4.446;2023-04-07T14:58:48;16.67;;;3.20;;
41293;SDS011;27037;52.010;4.446;2023-04-07T15:01:15;12.88;;;3.42;;
41293;SDS011;27037;52.010;4.446;2023-04-07T15:03:41;13.70;;;2.80;;
41293;SDS011;27037;52.010;4.446;2023-04-07T15:06:07;13.90;;;3.03;;